SBMN/MAO METAR and TAF weather

Enter ICAO airport designator
Station Type Date Time Source
SBMN METAR 2020/11/28 20:00 UTC NOAA

SBMN 282000Z 08004KT 9999 SCT025 32/24 Q1007


Station Type Date Time Source
SBMN Decoded METAR 2020/11/28 20:00 UTC NOAA

Manaus Aeroporto , Brazil (SBMN) 03-09S 059-59W 84M
Nov 28, 2020 - 03:00 PM EST / 2020.11.28 2000 UTC
Wind: from the E (080 degrees) at 5 MPH (4 KT):0
Visibility: greater than 7 mile(s):0
Sky conditions: partly cloudy
Temperature: 89 F (32 C)
Heat index: 98.4 F (36.9 C):1
Dew Point: 75 F (24 C)
Relative Humidity: 62%
Pressure (altimeter): 29.74 in. Hg (1007 hPa)
ob: SBMN 282000Z 08004KT 9999 SCT025 32/24 Q1007
cycle: 20

Station Type Date Time Source
SBMN TAF 2020/11/28 18:33 UTC NOAA

TAF TAF SBMN 281500Z 2818/2906 10005KT 9999 SCT020 TX29/2818Z TN25/2903Z
RMK PEA

Example: see airport list